sensor_id;sensor_type;location;lat;lon;timestamp;P1;durP1;ratioP1;P2;durP2;ratioP2
20824;SDS011;10573;50.936;6.978;2022-12-18T00:00:30;20.53;;;9.93;;
20824;SDS011;10573;50.936;6.978;2022-12-18T00:02:55;19.70;;;9.43;;
20824;SDS011;10573;50.936;6.978;2022-12-18T00:05:20;22.70;;;9.98;;
20824;SDS011;10573;50.936;6.978;2022-12-18T00:07:46;19.30;;;9.77;;
20824;SDS011;10573;50.936;6.978;2022-12-18T00:10:11;19.40;;;9.67;;
20824;SDS011;10573;50.936;6.978;2022-12-18T00:12:36;22.00;;;9.23;;
20824;SDS011;10573;50.936;6.978;2022-12-18T00:15:02;22.40;;;9.43;;
20824;SDS011;10573;50.936;6.978;2022-12-18T00:17:27;16.58;;;8.65;;
20824;SDS011;10573;50.936;6.978;2022-12-18T00:19:52;21.73;;;9.85;;
20824;SDS011;10573;50.936;6.978;2022-12-18T00:22:18;19.40;;;9.30;;
20824;SDS011;10573;50.936;6.978;2022-12-18T00:24:43;18.00;;;9.80;;
20824;SDS011;10573;50.936;6.978;2022-12-18T00:27:08;19.50;;;9.97;;
20824;SDS011;10573;50.936;6.978;2022-12-18T00:29:33;17.75;;;9.23;;
20824;SDS011;10573;50.936;6.978;2022-12-18T00:31:59;21.57;;;10.53;;
20824;SDS011;10573;50.936;6.978;2022-12-18T00:34:24;22.90;;;10.40;;
20824;SDS011;10573;50.936;6.978;2022-12-18T00:36:49;22.03;;;10.40;;
20824;SDS011;10573;50.936;6.978;2022-12-18T00:39:14;21.20;;;10.47;;
20824;SDS011;10573;50.936;6.978;2022-12-18T00:41:40;20.13;;;10.10;;
20824;SDS011;10573;50.936;6.978;2022-12-18T00:44:23;20.92;;;10.25;;
20824;SDS011;10573;50.936;6.978;2022-12-18T00:46:49;17.95;;;9.90;;
20824;SDS011;10573;50.936;6.978;2022-12-18T00:49:15;22.02;;;9.75;;
20824;SDS011;10573;50.936;6.978;2022-12-18T00:51:41;19.17;;;10.00;;
20824;SDS011;10573;50.936;6.978;2022-12-18T00:54:07;20.40;;;10.03;;
20824;SDS011;10573;50.936;6.978;2022-12-18T00:56:32;21.53;;;10.67;;
20824;SDS011;10573;50.936;6.978;2022-12-18T00:58:57;19.70;;;9.93;;
20824;SDS011;10573;50.936;6.978;2022-12-18T01:01:22;21.92;;;10.60;;
20824;SDS011;10573;50.936;6.978;2022-12-18T01:03:48;21.47;;;10.47;;
20824;SDS011;10573;50.936;6.978;2022-12-18T01:06:14;19.45;;;9.98;;
20824;SDS011;10573;50.936;6.978;2022-12-18T01:08:39;20.52;;;10.27;;
20824;SDS011;10573;50.936;6.978;2022-12-18T01:11:09;21.73;;;10.47;;
20824;SDS011;10573;50.936;6.978;2022-12-18T01:13:35;21.00;;;10.13;;
20824;SDS011;10573;50.936;6.978;2022-12-18T01:16:00;19.17;;;10.27;;
20824;SDS011;10573;50.936;6.978;2022-12-18T01:18:25;20.87;;;10.27;;
20824;SDS011;10573;50.936;6.978;2022-12-18T01:20:50;21.43;;;10.20;;
20824;SDS011;10573;50.936;6.978;2022-12-18T01:23:16;18.83;;;10.45;;
20824;SDS011;10573;50.936;6.978;2022-12-18T01:25:41;20.00;;;10.40;;
20824;SDS011;10573;50.936;6.978;2022-12-18T01:28:06;21.97;;;10.40;;
20824;SDS011;10573;50.936;6.978;2022-12-18T01:30:31;21.67;;;10.57;;
20824;SDS011;10573;50.936;6.978;2022-12-18T01:32:57;19.83;;;9.83;;
20824;SDS011;10573;50.936;6.978;2022-12-18T01:35:22;17.55;;;9.63;;
20824;SDS011;10573;50.936;6.978;2022-12-18T01:37:47;20.20;;;10.17;;
20824;SDS011;10573;50.936;6.978;2022-12-18T01:40:13;18.43;;;9.43;;
20824;SDS011;10573;50.936;6.978;2022-12-18T01:42:38;20.00;;;9.20;;
20824;SDS011;10573;50.936;6.978;2022-12-18T01:47:42;17.33;;;9.68;;
20824;SDS011;10573;50.936;6.978;2022-12-18T01:52:33;18.77;;;10.05;;
20824;SDS011;10573;50.936;6.978;2022-12-18T01:54:59;21.05;;;10.40;;
20824;SDS011;10573;50.936;6.978;2022-12-18T01:57:25;18.73;;;9.83;;
20824;SDS011;10573;50.936;6.978;2022-12-18T01:59:52;22.08;;;10.57;;
20824;SDS011;10573;50.936;6.978;2022-12-18T02:02:17;19.67;;;10.00;;
20824;SDS011;10573;50.936;6.978;2022-12-18T02:04:43;18.10;;;9.73;;
20824;SDS011;10573;50.936;6.978;2022-12-18T02:09:46;20.02;;;10.32;;
20824;SDS011;10573;50.936;6.978;2022-12-18T02:12:14;22.73;;;10.43;;
20824;SDS011;10573;50.936;6.978;2022-12-18T02:15:02;20.38;;;10.05;;
20824;SDS011;10573;50.936;6.978;2022-12-18T02:17:33;18.08;;;9.48;;
20824;SDS011;10573;50.936;6.978;2022-12-18T02:22:50;19.13;;;9.70;;
20824;SDS011;10573;50.936;6.978;2022-12-18T02:28:03;18.50;;;9.37;;
20824;SDS011;10573;50.936;6.978;2022-12-18T02:30:30;20.23;;;9.80;;
20824;SDS011;10573;50.936;6.978;2022-12-18T02:32:56;20.27;;;9.45;;
20824;SDS011;10573;50.936;6.978;2022-12-18T02:35:23;19.23;;;9.57;;
20824;SDS011;10573;50.936;6.978;2022-12-18T02:37:49;18.57;;;9.67;;
20824;SDS011;10573;50.936;6.978;2022-12-18T02:40:20;17.83;;;9.82;;
20824;SDS011;10573;50.936;6.978;2022-12-18T02:42:46;19.38;;;9.48;;
20824;SDS011;10573;50.936;6.978;2022-12-18T02:45:12;19.70;;;10.00;;
20824;SDS011;10573;50.936;6.978;2022-12-18T02:47:38;22.53;;;10.03;;
20824;SDS011;10573;50.936;6.978;2022-12-18T02:52:38;20.88;;;10.27;;
20824;SDS011;10573;50.936;6.978;2022-12-18T02:57:41;18.77;;;9.75;;
20824;SDS011;10573;50.936;6.978;2022-12-18T03:00:12;21.30;;;10.27;;
20824;SDS011;10573;50.936;6.978;2022-12-18T03:05:15;20.00;;;9.77;;
20824;SDS011;10573;50.936;6.978;2022-12-18T03:10:12;20.95;;;9.85;;
20824;SDS011;10573;50.936;6.978;2022-12-18T03:12:40;17.65;;;9.18;;
20824;SDS011;10573;50.936;6.978;2022-12-18T03:15:16;18.88;;;9.45;;
20824;SDS011;10573;50.936;6.978;2022-12-18T03:17:44;16.38;;;8.80;;
20824;SDS011;10573;50.936;6.978;2022-12-18T03:20:15;17.50;;;9.30;;
20824;SDS011;10573;50.936;6.978;2022-12-18T03:22:42;17.30;;;9.57;;
20824;SDS011;10573;50.936;6.978;2022-12-18T03:25:10;17.13;;;8.98;;
20824;SDS011;10573;50.936;6.978;2022-12-18T03:27:37;19.83;;;9.85;;
20824;SDS011;10573;50.936;6.978;2022-12-18T03:30:13;19.00;;;9.27;;
20824;SDS011;10573;50.936;6.978;2022-12-18T03:32:41;18.42;;;9.50;;
20824;SDS011;10573;50.936;6.978;2022-12-18T03:35:07;20.08;;;9.82;;
20824;SDS011;10573;50.936;6.978;2022-12-18T03:37:35;19.00;;;9.48;;
20824;SDS011;10573;50.936;6.978;2022-12-18T03:40:01;17.73;;;9.20;;
20824;SDS011;10573;50.936;6.978;2022-12-18T03:42:31;16.70;;;8.82;;
20824;SDS011;10573;50.936;6.978;2022-12-18T03:45:02;14.10;;;8.20;;
20824;SDS011;10573;50.936;6.978;2022-12-18T03:47:34;19.20;;;8.98;;
20824;SDS011;10573;50.936;6.978;2022-12-18T03:54:58;18.40;;;9.47;;
20824;SDS011;10573;50.936;6.978;2022-12-18T03:57:25;16.50;;;8.70;;
20824;SDS011;10573;50.936;6.978;2022-12-18T03:59:54;16.83;;;8.75;;
20824;SDS011;10573;50.936;6.978;2022-12-18T04:02:21;18.05;;;9.18;;
20824;SDS011;10573;50.936;6.978;2022-12-18T04:04:47;18.23;;;9.25;;
20824;SDS011;10573;50.936;6.978;2022-12-18T04:07:12;17.92;;;9.63;;
20824;SDS011;10573;50.936;6.978;2022-12-18T04:09:38;19.57;;;9.93;;
20824;SDS011;10573;50.936;6.978;2022-12-18T04:12:04;18.58;;;8.82;;
20824;SDS011;10573;50.936;6.978;2022-12-18T04:14:29;19.50;;;9.80;;
20824;SDS011;10573;50.936;6.978;2022-12-18T04:16:54;18.70;;;9.77;;
20824;SDS011;10573;50.936;6.978;2022-12-18T04:19:20;21.90;;;10.10;;
20824;SDS011;10573;50.936;6.978;2022-12-18T04:21:45;20.17;;;10.43;;
20824;SDS011;10573;50.936;6.978;2022-12-18T04:24:10;18.55;;;10.00;;
20824;SDS011;10573;50.936;6.978;2022-12-18T04:26:36;21.80;;;10.37;;
20824;SDS011;10573;50.936;6.978;2022-12-18T04:29:01;20.90;;;10.43;;
20824;SDS011;10573;50.936;6.978;2022-12-18T04:31:26;20.57;;;10.27;;
20824;SDS011;10573;50.936;6.978;2022-12-18T04:33:51;21.37;;;10.80;;
20824;SDS011;10573;50.936;6.978;2022-12-18T04:36:17;21.73;;;9.88;;
20824;SDS011;10573;50.936;6.978;2022-12-18T04:38:42;23.25;;;11.32;;
20824;SDS011;10573;50.936;6.978;2022-12-18T04:41:07;19.60;;;10.33;;
20824;SDS011;10573;50.936;6.978;2022-12-18T04:43:33;22.63;;;10.93;;
20824;SDS011;10573;50.936;6.978;2022-12-18T04:46:02;22.13;;;10.53;;
20824;SDS011;10573;50.936;6.978;2022-12-18T04:48:27;19.20;;;10.60;;
20824;SDS011;10573;50.936;6.978;2022-12-18T04:50:52;22.87;;;10.83;;
20824;SDS011;10573;50.936;6.978;2022-12-18T04:53:18;20.23;;;10.30;;
20824;SDS011;10573;50.936;6.978;2022-12-18T04:55:43;21.87;;;10.57;;
20824;SDS011;10573;50.936;6.978;2022-12-18T04:58:08;22.17;;;10.40;;
20824;SDS011;10573;50.936;6.978;2022-12-18T05:00:33;21.35;;;10.40;;
20824;SDS011;10573;50.936;6.978;2022-12-18T05:03:00;20.33;;;9.80;;
20824;SDS011;10573;50.936;6.978;2022-12-18T05:05:26;19.35;;;9.77;;
20824;SDS011;10573;50.936;6.978;2022-12-18T05:07:51;18.77;;;9.67;;
20824;SDS011;10573;50.936;6.978;2022-12-18T05:10:16;20.17;;;10.00;;
20824;SDS011;10573;50.936;6.978;2022-12-18T05:12:41;20.17;;;9.38;;
20824;SDS011;10573;50.936;6.978;2022-12-18T05:15:26;18.05;;;9.23;;
20824;SDS011;10573;50.936;6.978;2022-12-18T05:17:52;20.83;;;9.65;;
20824;SDS011;10573;50.936;6.978;2022-12-18T05:20:17;19.17;;;9.83;;
20824;SDS011;10573;50.936;6.978;2022-12-18T05:22:43;21.27;;;10.13;;
20824;SDS011;10573;50.936;6.978;2022-12-18T05:25:08;18.93;;;9.33;;
20824;SDS011;10573;50.936;6.978;2022-12-18T05:27:34;17.00;;;9.10;;
20824;SDS011;10573;50.936;6.978;2022-12-18T05:29:59;17.83;;;8.73;;
20824;SDS011;10573;50.936;6.978;2022-12-18T05:32:24;16.20;;;8.40;;
20824;SDS011;10573;50.936;6.978;2022-12-18T05:34:50;18.45;;;9.23;;
20824;SDS011;10573;50.936;6.978;2022-12-18T05:37:15;19.13;;;9.57;;
20824;SDS011;10573;50.936;6.978;2022-12-18T05:39:40;18.47;;;9.57;;
20824;SDS011;10573;50.936;6.978;2022-12-18T05:42:05;18.53;;;8.97;;
20824;SDS011;10573;50.936;6.978;2022-12-18T05:44:31;16.13;;;8.80;;
20824;SDS011;10573;50.936;6.978;2022-12-18T05:46:56;17.30;;;9.23;;
20824;SDS011;10573;50.936;6.978;2022-12-18T05:49:21;19.33;;;9.10;;
20824;SDS011;10573;50.936;6.978;2022-12-18T05:51:46;17.50;;;8.87;;
20824;SDS011;10573;50.936;6.978;2022-12-18T05:54:12;18.17;;;9.17;;
20824;SDS011;10573;50.936;6.978;2022-12-18T05:56:37;16.07;;;8.90;;
20824;SDS011;10573;50.936;6.978;2022-12-18T05:59:02;15.98;;;9.02;;
20824;SDS011;10573;50.936;6.978;2022-12-18T06:01:27;18.40;;;9.53;;
20824;SDS011;10573;50.936;6.978;2022-12-18T06:03:53;18.30;;;9.53;;
20824;SDS011;10573;50.936;6.978;2022-12-18T06:06:20;19.15;;;9.30;;
20824;SDS011;10573;50.936;6.978;2022-12-18T06:08:45;17.40;;;9.63;;
20824;SDS011;10573;50.936;6.978;2022-12-18T06:11:11;21.17;;;9.93;;
20824;SDS011;10573;50.936;6.978;2022-12-18T06:13:37;20.63;;;10.17;;
20824;SDS011;10573;50.936;6.978;2022-12-18T06:16:05;19.58;;;10.30;;
20824;SDS011;10573;50.936;6.978;2022-12-18T06:18:31;22.92;;;10.10;;
20824;SDS011;10573;50.936;6.978;2022-12-18T06:20:56;21.33;;;10.00;;
20824;SDS011;10573;50.936;6.978;2022-12-18T06:23:22;19.08;;;9.80;;
20824;SDS011;10573;50.936;6.978;2022-12-18T06:25:47;21.80;;;10.43;;
20824;SDS011;10573;50.936;6.978;2022-12-18T06:28:12;22.00;;;10.20;;
20824;SDS011;10573;50.936;6.978;2022-12-18T06:30:38;19.60;;;10.30;;
20824;SDS011;10573;50.936;6.978;2022-12-18T06:33:03;17.87;;;9.87;;
20824;SDS011;10573;50.936;6.978;2022-12-18T06:35:28;20.07;;;10.00;;
20824;SDS011;10573;50.936;6.978;2022-12-18T06:37:54;21.58;;;10.45;;
20824;SDS011;10573;50.936;6.978;2022-12-18T06:40:19;21.13;;;10.38;;
20824;SDS011;10573;50.936;6.978;2022-12-18T06:42:45;22.70;;;10.23;;
20824;SDS011;10573;50.936;6.978;2022-12-18T06:45:10;21.27;;;10.37;;
20824;SDS011;10573;50.936;6.978;2022-12-18T06:47:36;22.15;;;10.68;;
20824;SDS011;10573;50.936;6.978;2022-12-18T06:50:02;20.07;;;10.13;;
20824;SDS011;10573;50.936;6.978;2022-12-18T06:52:27;22.02;;;9.98;;
20824;SDS011;10573;50.936;6.978;2022-12-18T06:54:52;21.67;;;10.53;;
20824;SDS011;10573;50.936;6.978;2022-12-18T06:57:17;20.33;;;9.73;;
20824;SDS011;10573;50.936;6.978;2022-12-18T06:59:43;21.90;;;10.87;;
20824;SDS011;10573;50.936;6.978;2022-12-18T07:02:10;23.07;;;10.50;;
20824;SDS011;10573;50.936;6.978;2022-12-18T07:04:36;22.88;;;10.80;;
20824;SDS011;10573;50.936;6.978;2022-12-18T07:07:01;23.30;;;10.70;;
20824;SDS011;10573;50.936;6.978;2022-12-18T07:09:27;22.77;;;11.43;;
20824;SDS011;10573;50.936;6.978;2022-12-18T07:11:52;24.60;;;11.50;;
20824;SDS011;10573;50.936;6.978;2022-12-18T07:14:17;23.53;;;11.87;;
20824;SDS011;10573;50.936;6.978;2022-12-18T07:16:43;23.07;;;11.10;;
20824;SDS011;10573;50.936;6.978;2022-12-18T07:19:08;24.73;;;11.95;;
20824;SDS011;10573;50.936;6.978;2022-12-18T07:21:33;30.13;;;12.53;;
20824;SDS011;10573;50.936;6.978;2022-12-18T07:23:58;21.97;;;11.63;;
20824;SDS011;10573;50.936;6.978;2022-12-18T07:26:24;24.50;;;12.30;;
20824;SDS011;10573;50.936;6.978;2022-12-18T07:28:49;23.90;;;11.83;;
20824;SDS011;10573;50.936;6.978;2022-12-18T07:31:19;26.83;;;13.03;;
20824;SDS011;10573;50.936;6.978;2022-12-18T07:33:45;22.73;;;12.20;;
20824;SDS011;10573;50.936;6.978;2022-12-18T07:36:11;27.23;;;13.27;;
20824;SDS011;10573;50.936;6.978;2022-12-18T07:38:36;23.80;;;12.00;;
20824;SDS011;10573;50.936;6.978;2022-12-18T07:41:06;26.30;;;12.10;;
20824;SDS011;10573;50.936;6.978;2022-12-18T07:43:32;24.55;;;12.10;;
20824;SDS011;10573;50.936;6.978;2022-12-18T07:45:57;27.27;;;13.07;;
20824;SDS011;10573;50.936;6.978;2022-12-18T07:48:23;25.60;;;12.63;;
20824;SDS011;10573;50.936;6.978;2022-12-18T07:50:48;26.03;;;12.57;;
20824;SDS011;10573;50.936;6.978;2022-12-18T07:53:13;32.55;;;13.18;;
20824;SDS011;10573;50.936;6.978;2022-12-18T07:55:39;27.42;;;13.18;;
20824;SDS011;10573;50.936;6.978;2022-12-18T07:58:06;27.90;;;13.18;;
20824;SDS011;10573;50.936;6.978;2022-12-18T08:00:31;22.80;;;11.70;;
20824;SDS011;10573;50.936;6.978;2022-12-18T08:02:57;24.80;;;12.83;;
20824;SDS011;10573;50.936;6.978;2022-12-18T08:05:22;25.13;;;12.03;;
20824;SDS011;10573;50.936;6.978;2022-12-18T08:07:47;27.20;;;12.43;;
20824;SDS011;10573;50.936;6.978;2022-12-18T08:10:13;24.90;;;12.27;;
20824;SDS011;10573;50.936;6.978;2022-12-18T08:12:38;23.38;;;12.07;;
20824;SDS011;10573;50.936;6.978;2022-12-18T08:15:03;26.40;;;11.98;;
20824;SDS011;10573;50.936;6.978;2022-12-18T08:17:29;25.48;;;11.82;;
20824;SDS011;10573;50.936;6.978;2022-12-18T08:19:54;23.70;;;11.80;;
20824;SDS011;10573;50.936;6.978;2022-12-18T08:22:19;26.70;;;12.20;;
20824;SDS011;10573;50.936;6.978;2022-12-18T08:24:45;27.90;;;12.33;;
20824;SDS011;10573;50.936;6.978;2022-12-18T08:27:10;27.80;;;12.23;;
20824;SDS011;10573;50.936;6.978;2022-12-18T08:29:35;27.27;;;12.25;;
20824;SDS011;10573;50.936;6.978;2022-12-18T08:32:00;27.10;;;12.87;;
20824;SDS011;10573;50.936;6.978;2022-12-18T08:34:26;23.20;;;11.43;;
20824;SDS011;10573;50.936;6.978;2022-12-18T08:36:51;22.10;;;11.50;;
20824;SDS011;10573;50.936;6.978;2022-12-18T08:39:17;25.77;;;11.57;;
20824;SDS011;10573;50.936;6.978;2022-12-18T08:41:42;23.40;;;11.50;;
20824;SDS011;10573;50.936;6.978;2022-12-18T08:44:07;24.30;;;11.27;;
20824;SDS011;10573;50.936;6.978;2022-12-18T08:46:51;22.98;;;11.77;;
20824;SDS011;10573;50.936;6.978;2022-12-18T08:49:17;21.00;;;11.03;;
20824;SDS011;10573;50.936;6.978;2022-12-18T08:51:42;22.27;;;10.57;;
20824;SDS011;10573;50.936;6.978;2022-12-18T08:54:08;23.67;;;11.43;;
20824;SDS011;10573;50.936;6.978;2022-12-18T08:56:35;22.35;;;11.00;;
20824;SDS011;10573;50.936;6.978;2022-12-18T08:59:01;20.30;;;10.50;;
20824;SDS011;10573;50.936;6.978;2022-12-18T09:01:26;20.33;;;10.53;;
20824;SDS011;10573;50.936;6.978;2022-12-18T09:03:51;20.88;;;10.90;;
20824;SDS011;10573;50.936;6.978;2022-12-18T09:06:17;18.52;;;10.25;;
20824;SDS011;10573;50.936;6.978;2022-12-18T09:08:43;21.02;;;10.98;;
20824;SDS011;10573;50.936;6.978;2022-12-18T09:11:18;19.42;;;9.93;;
20824;SDS011;10573;50.936;6.978;2022-12-18T09:13:44;18.10;;;10.17;;
20824;SDS011;10573;50.936;6.978;2022-12-18T09:16:09;18.70;;;10.23;;
20824;SDS011;10573;50.936;6.978;2022-12-18T09:18:34;18.83;;;9.60;;
20824;SDS011;10573;50.936;6.978;2022-12-18T09:21:06;21.97;;;10.90;;
20824;SDS011;10573;50.936;6.978;2022-12-18T09:23:32;19.17;;;9.73;;
20824;SDS011;10573;50.936;6.978;2022-12-18T09:26:00;23.23;;;10.30;;
20824;SDS011;10573;50.936;6.978;2022-12-18T09:28:25;19.77;;;9.80;;
20824;SDS011;10573;50.936;6.978;2022-12-18T09:30:50;18.33;;;10.17;;
20824;SDS011;10573;50.936;6.978;2022-12-18T09:33:16;23.77;;;11.90;;
20824;SDS011;10573;50.936;6.978;2022-12-18T09:35:42;20.30;;;10.23;;
20824;SDS011;10573;50.936;6.978;2022-12-18T09:38:08;19.88;;;9.95;;
20824;SDS011;10573;50.936;6.978;2022-12-18T09:40:39;17.55;;;9.90;;
20824;SDS011;10573;50.936;6.978;2022-12-18T09:43:05;21.02;;;10.10;;
20824;SDS011;10573;50.936;6.978;2022-12-18T09:45:34;21.17;;;10.50;;
20824;SDS011;10573;50.936;6.978;2022-12-18T09:48:03;20.30;;;10.33;;
20824;SDS011;10573;50.936;6.978;2022-12-18T09:50:31;19.23;;;10.32;;
20824;SDS011;10573;50.936;6.978;2022-12-18T09:52:57;19.37;;;10.70;;
20824;SDS011;10573;50.936;6.978;2022-12-18T09:55:25;19.70;;;10.07;;
20824;SDS011;10573;50.936;6.978;2022-12-18T09:57:57;17.48;;;9.40;;
20824;SDS011;10573;50.936;6.978;2022-12-18T10:00:25;21.17;;;10.45;;
20824;SDS011;10573;50.936;6.978;2022-12-18T10:02:51;20.57;;;10.07;;
20824;SDS011;10573;50.936;6.978;2022-12-18T10:05:26;20.38;;;10.55;;
20824;SDS011;10573;50.936;6.978;2022-12-18T10:08:10;18.88;;;9.82;;
20824;SDS011;10573;50.936;6.978;2022-12-18T10:10:41;17.77;;;10.02;;
20824;SDS011;10573;50.936;6.978;2022-12-18T10:18:26;20.25;;;10.05;;
20824;SDS011;10573;50.936;6.978;2022-12-18T10:20:56;20.77;;;10.13;;
20824;SDS011;10573;50.936;6.978;2022-12-18T10:23:26;20.23;;;10.93;;
20824;SDS011;10573;50.936;6.978;2022-12-18T10:25:55;18.40;;;9.60;;
20824;SDS011;10573;50.936;6.978;2022-12-18T10:28:24;20.30;;;10.20;;
20824;SDS011;10573;50.936;6.978;2022-12-18T10:30:49;18.77;;;10.00;;
20824;SDS011;10573;50.936;6.978;2022-12-18T10:33:16;19.10;;;10.00;;
20824;SDS011;10573;50.936;6.978;2022-12-18T10:35:42;19.75;;;9.98;;
20824;SDS011;10573;50.936;6.978;2022-12-18T10:40:58;21.73;;;10.32;;
20824;SDS011;10573;50.936;6.978;2022-12-18T10:43:27;19.20;;;10.10;;
20824;SDS011;10573;50.936;6.978;2022-12-18T10:48:55;19.50;;;10.57;;
20824;SDS011;10573;50.936;6.978;2022-12-18T10:51:27;20.33;;;9.95;;
20824;SDS011;10573;50.936;6.978;2022-12-18T10:53:59;18.50;;;10.13;;
20824;SDS011;10573;50.936;6.978;2022-12-18T10:56:28;22.00;;;10.45;;
20824;SDS011;10573;50.936;6.978;2022-12-18T11:01:26;19.83;;;9.90;;
20824;SDS011;10573;50.936;6.978;2022-12-18T11:06:19;19.90;;;10.23;;
20824;SDS011;10573;50.936;6.978;2022-12-18T11:11:49;20.73;;;10.52;;
20824;SDS011;10573;50.936;6.978;2022-12-18T11:14:27;21.58;;;10.85;;
20824;SDS011;10573;50.936;6.978;2022-12-18T11:16:55;20.15;;;10.25;;
20824;SDS011;10573;50.936;6.978;2022-12-18T11:22:03;22.20;;;10.65;;
20824;SDS011;10573;50.936;6.978;2022-12-18T11:24:55;18.33;;;10.23;;
20824;SDS011;10573;50.936;6.978;2022-12-18T11:27:23;20.88;;;10.65;;
20824;SDS011;10573;50.936;6.978;2022-12-18T11:29:49;21.70;;;11.02;;
20824;SDS011;10573;50.936;6.978;2022-12-18T11:32:38;21.00;;;10.68;;
20824;SDS011;10573;50.936;6.978;2022-12-18T11:37:40;21.73;;;10.85;;
20824;SDS011;10573;50.936;6.978;2022-12-18T11:40:14;22.45;;;10.80;;
20824;SDS011;10573;50.936;6.978;2022-12-18T11:42:48;22.13;;;10.93;;
20824;SDS011;10573;50.936;6.978;2022-12-18T11:47:58;23.17;;;11.38;;
20824;SDS011;10573;50.936;6.978;2022-12-18T11:50:39;21.08;;;10.73;;
20824;SDS011;10573;50.936;6.978;2022-12-18T11:53:10;21.50;;;10.80;;
20824;SDS011;10573;50.936;6.978;2022-12-18T11:55:39;22.95;;;10.88;;
20824;SDS011;10573;50.936;6.978;2022-12-18T12:03:27;23.25;;;10.73;;
20824;SDS011;10573;50.936;6.978;2022-12-18T12:16:13;24.38;;;11.15;;
20824;SDS011;10573;50.936;6.978;2022-12-18T12:21:36;22.23;;;10.90;;
20824;SDS011;10573;50.936;6.978;2022-12-18T12:26:42;21.47;;;11.07;;
20824;SDS011;10573;50.936;6.978;2022-12-18T12:29:23;23.88;;;11.25;;
20824;SDS011;10573;50.936;6.978;2022-12-18T12:35:26;24.37;;;11.50;;
20824;SDS011;10573;50.936;6.978;2022-12-18T12:37:37;23.17;;;11.50;;
20824;SDS011;10573;50.936;6.978;2022-12-18T12:40:05;25.88;;;12.00;;
20824;SDS011;10573;50.936;6.978;2022-12-18T12:42:39;23.45;;;11.25;;
20824;SDS011;10573;50.936;6.978;2022-12-18T12:48:46;22.80;;;11.07;;
20824;SDS011;10573;50.936;6.978;2022-12-18T12:51:37;23.40;;;11.52;;
20824;SDS011;10573;50.936;6.978;2022-12-18T12:54:08;23.63;;;11.85;;
20824;SDS011;10573;50.936;6.978;2022-12-18T12:59:15;24.27;;;12.15;;
20824;SDS011;10573;50.936;6.978;2022-12-18T13:01:49;23.00;;;12.07;;
20824;SDS011;10573;50.936;6.978;2022-12-18T13:04:23;23.70;;;11.63;;
20824;SDS011;10573;50.936;6.978;2022-12-18T13:06:59;24.65;;;12.20;;
20824;SDS011;10573;50.936;6.978;2022-12-18T13:09:31;25.25;;;12.52;;
20824;SDS011;10573;50.936;6.978;2022-12-18T13:12:01;24.45;;;11.43;;
20824;SDS011;10573;50.936;6.978;2022-12-18T13:14:46;22.80;;;12.25;;
20824;SDS011;10573;50.936;6.978;2022-12-18T13:19:50;26.92;;;12.40;;
20824;SDS011;10573;50.936;6.978;2022-12-18T13:22:51;23.83;;;13.13;;
20824;SDS011;10573;50.936;6.978;2022-12-18T13:25:33;26.00;;;13.15;;
20824;SDS011;10573;50.936;6.978;2022-12-18T13:28:08;26.60;;;12.75;;
20824;SDS011;10573;50.936;6.978;2022-12-18T13:31:01;22.30;;;12.40;;
20824;SDS011;10573;50.936;6.978;2022-12-18T13:33:37;26.42;;;12.80;;
20824;SDS011;10573;50.936;6.978;2022-12-18T13:38:47;28.23;;;13.73;;
20824;SDS011;10573;50.936;6.978;2022-12-18T13:43:45;27.13;;;12.88;;
20824;SDS011;10573;50.936;6.978;2022-12-18T13:46:19;36.95;;;16.42;;
20824;SDS011;10573;50.936;6.978;2022-12-18T13:49:05;27.63;;;13.48;;
20824;SDS011;10573;50.936;6.978;2022-12-18T13:51:39;28.02;;;12.93;;
20824;SDS011;10573;50.936;6.978;2022-12-18T13:56:46;26.85;;;12.80;;
20824;SDS011;10573;50.936;6.978;2022-12-18T13:59:20;26.13;;;12.80;;
20824;SDS011;10573;50.936;6.978;2022-12-18T14:01:52;28.63;;;13.23;;
20824;SDS011;10573;50.936;6.978;2022-12-18T14:04:35;24.02;;;12.50;;
20824;SDS011;10573;50.936;6.978;2022-12-18T14:09:36;28.35;;;13.20;;
20824;SDS011;10573;50.936;6.978;2022-12-18T14:12:05;26.40;;;13.00;;
20824;SDS011;10573;50.936;6.978;2022-12-18T14:14:51;26.40;;;13.77;;
20824;SDS011;10573;50.936;6.978;2022-12-18T14:17:18;29.70;;;13.37;;
20824;SDS011;10573;50.936;6.978;2022-12-18T14:19:44;29.15;;;13.68;;
20824;SDS011;10573;50.936;6.978;2022-12-18T14:22:14;27.40;;;11.93;;
20824;SDS011;10573;50.936;6.978;2022-12-18T14:24:45;27.47;;;11.67;;
20824;SDS011;10573;50.936;6.978;2022-12-18T14:27:24;24.07;;;11.27;;
20824;SDS011;10573;50.936;6.978;2022-12-18T14:29:50;28.07;;;12.80;;
20824;SDS011;10573;50.936;6.978;2022-12-18T14:32:20;27.33;;;12.93;;
20824;SDS011;10573;50.936;6.978;2022-12-18T14:34:50;30.00;;;13.73;;
20824;SDS011;10573;50.936;6.978;2022-12-18T14:37:25;30.33;;;14.52;;
20824;SDS011;10573;50.936;6.978;2022-12-18T14:40:01;28.02;;;14.27;;
20824;SDS011;10573;50.936;6.978;2022-12-18T14:42:29;29.08;;;14.13;;
20824;SDS011;10573;50.936;6.978;2022-12-18T14:47:58;27.17;;;14.15;;
20824;SDS011;10573;50.936;6.978;2022-12-18T14:50:24;28.43;;;13.93;;
20824;SDS011;10573;50.936;6.978;2022-12-18T14:52:50;27.90;;;13.70;;
20824;SDS011;10573;50.936;6.978;2022-12-18T14:55:16;32.55;;;14.98;;
20824;SDS011;10573;50.936;6.978;2022-12-18T14:57:43;30.17;;;14.10;;
20824;SDS011;10573;50.936;6.978;2022-12-18T15:00:16;30.27;;;14.65;;
20824;SDS011;10573;50.936;6.978;2022-12-18T15:02:45;31.00;;;14.77;;
20824;SDS011;10573;50.936;6.978;2022-12-18T15:07:42;29.83;;;14.73;;
20824;SDS011;10573;50.936;6.978;2022-12-18T15:18:11;33.25;;;15.23;;
20824;SDS011;10573;50.936;6.978;2022-12-18T15:23:19;34.42;;;14.88;;
20824;SDS011;10573;50.936;6.978;2022-12-18T15:26:00;32.13;;;15.88;;
20824;SDS011;10573;50.936;6.978;2022-12-18T15:28:34;31.23;;;14.73;;
20824;SDS011;10573;50.936;6.978;2022-12-18T15:33:40;30.13;;;15.60;;
20824;SDS011;10573;50.936;6.978;2022-12-18T15:36:10;33.23;;;15.07;;
20824;SDS011;10573;50.936;6.978;2022-12-18T15:38:38;31.75;;;16.13;;
20824;SDS011;10573;50.936;6.978;2022-12-18T15:41:03;33.30;;;15.60;;
20824;SDS011;10573;50.936;6.978;2022-12-18T15:43:29;37.30;;;16.15;;
20824;SDS011;10573;50.936;6.978;2022-12-18T15:46:14;33.50;;;16.88;;
20824;SDS011;10573;50.936;6.978;2022-12-18T15:48:43;35.90;;;16.77;;
20824;SDS011;10573;50.936;6.978;2022-12-18T15:53:47;35.10;;;16.40;;
20824;SDS011;10573;50.936;6.978;2022-12-18T15:56:15;34.95;;;15.95;;
20824;SDS011;10573;50.936;6.978;2022-12-18T15:59:00;35.47;;;15.83;;
20824;SDS011;10573;50.936;6.978;2022-12-18T16:01:27;32.55;;;16.63;;
20824;SDS011;10573;50.936;6.978;2022-12-18T16:03:54;33.35;;;15.95;;
20824;SDS011;10573;50.936;6.978;2022-12-18T16:06:20;35.33;;;16.23;;
20824;SDS011;10573;50.936;6.978;2022-12-18T16:08:46;36.45;;;17.00;;
20824;SDS011;10573;50.936;6.978;2022-12-18T16:11:28;33.37;;;16.33;;
20824;SDS011;10573;50.936;6.978;2022-12-18T16:14:27;33.78;;;16.23;;
20824;SDS011;10573;50.936;6.978;2022-12-18T16:16:53;33.80;;;16.80;;
20824;SDS011;10573;50.936;6.978;2022-12-18T16:19:20;35.55;;;16.10;;
20824;SDS011;10573;50.936;6.978;2022-12-18T16:21:46;36.77;;;17.03;;
20824;SDS011;10573;50.936;6.978;2022-12-18T16:24:16;37.33;;;17.33;;
20824;SDS011;10573;50.936;6.978;2022-12-18T16:26:43;38.80;;;17.13;;
20824;SDS011;10573;50.936;6.978;2022-12-18T16:29:09;36.97;;;17.25;;
20824;SDS011;10573;50.936;6.978;2022-12-18T16:31:35;37.38;;;17.70;;